createdAt,value
2022-10-16T09:17:21.722Z,100018.94
2022-10-16T09:19:59.522Z,100017.25
2022-10-16T09:22:51.745Z,100016.75
2022-10-16T09:25:42.224Z,99949.56
2022-10-16T09:28:30.510Z,100003.88
2022-10-16T09:31:17.447Z,99975.94
2022-10-16T09:34:06.433Z,99980.53
2022-10-16T09:37:05.818Z,99982.28
2022-10-16T09:40:08.582Z,99989.53
2022-10-16T09:42:57.964Z,99985.59
2022-10-16T09:45:45.473Z,99957.31
2022-10-16T09:48:34.144Z,99976.97
2022-10-16T09:51:24.256Z,99968.66
2022-10-16T09:54:19.928Z,99971.06
2022-10-16T09:57:07.177Z,99977.72
2022-10-16T09:59:54.601Z,99967.03
2022-10-16T10:02:47.337Z,99942.22
2022-10-16T10:06:02.210Z,99960.06
2022-10-16T10:08:49.592Z,99949.97
2022-10-16T10:11:36.508Z,99946.97
2022-10-16T10:14:32.202Z,99945.66
2022-10-16T10:17:45.226Z,99938.28
2022-10-16T10:20:48.404Z,99939.66
2022-10-16T10:23:47.703Z,99934.91
2022-10-16T10:26:48.661Z,99935.31
2022-10-16T10:29:53.982Z,99936.56
2022-10-16T10:32:55.457Z,99937.63
2022-10-16T10:35:54.403Z,99929.03
2022-10-16T10:38:48.376Z,99931.78
2022-10-16T10:41:50.540Z,99926.66
2022-10-16T10:44:44.437Z,99921.41
2022-10-16T10:47:52.908Z,99918.09
2022-10-16T10:50:49.738Z,99925.41
2022-10-16T10:53:47.490Z,99917.56
2022-10-16T10:56:45.274Z,99884.09
2022-10-16T10:59:35.305Z,99933.75
2022-10-16T11:02:28.657Z,99926.84
2022-10-16T11:05:15.691Z,99934.38
2022-10-16T11:08:10.901Z,99927.69
2022-10-16T11:11:10.834Z,99920.56
2022-10-16T11:14:10.573Z,99935.69
2022-10-16T11:17:07.829Z,99921.13
2022-10-16T11:20:34.654Z,99927.97
2022-10-16T11:23:50.043Z,99932.88
2022-10-16T11:26:48.395Z,99921.91
2022-10-16T11:29:46.581Z,99921.50
2022-10-16T11:32:43.795Z,99921.91
2022-10-16T11:35:40.919Z,99922.25
2022-10-16T11:38:52.668Z,99853.53
2022-10-16T11:41:52.691Z,99913.41
2022-10-16T11:44:39.456Z,99911.34
2022-10-16T11:47:53.917Z,99922.44
2022-10-16T11:50:42.033Z,99924.75
2022-10-16T11:53:39.608Z,99925.38
2022-10-16T11:56:27.229Z,99870.53
2022-10-16T11:59:17.200Z,99920.50
2022-10-16T12:02:46.093Z,99921.25
2022-10-16T12:05:51.545Z,99934.34
2022-10-16T12:08:38.736Z,99929.78
2022-10-16T12:11:49.113Z,99926.25
2022-10-16T12:14:42.965Z,99925.28
2022-10-16T12:17:54.622Z,99930.59
2022-10-16T12:20:51.788Z,99928.91
2022-10-16T12:23:42.276Z,99928.91
2022-10-16T12:26:29.286Z,99921.34
2022-10-16T12:29:18.337Z,99927.13
2022-10-16T12:32:10.865Z,99908.78
2022-10-16T12:35:04.457Z,99890.69
2022-10-16T12:37:57.204Z,99932.31
2022-10-16T12:40:51.050Z,99933.06
2022-10-16T12:43:53.184Z,99926.78
2022-10-16T12:46:42.735Z,99932.13
2022-10-16T12:49:35.647Z,99938.28
2022-10-16T12:52:22.623Z,99943.50
2022-10-16T12:55:09.550Z,99940.81
2022-10-16T12:58:37.360Z,99932.00
2022-10-16T13:01:54.429Z,99948.81
2022-10-16T13:05:06.222Z,99942.66
2022-10-16T13:08:26.308Z,99939.13
2022-10-16T13:11:21.960Z,99937.34
2022-10-16T13:14:28.561Z,99934.78
2022-10-16T13:17:32.888Z,99944.56
2022-10-16T13:20:42.941Z,99932.94
2022-10-16T13:23:40.518Z,99862.94
2022-10-16T13:26:30.353Z,99934.66
2022-10-16T13:29:21.104Z,99949.69
2022-10-16T13:32:08.778Z,99949.69
2022-10-16T13:35:05.653Z,99879.38
2022-10-16T13:37:52.672Z,99924.78
2022-10-16T13:40:42.952Z,99947.56
2022-10-16T13:43:30.543Z,99940.72
2022-10-16T13:46:26.469Z,99937.94
2022-10-16T13:49:40.860Z,99870.22
2022-10-16T13:52:39.105Z,99958.75
2022-10-16T13:55:37.880Z,99958.84
2022-10-16T13:58:33.145Z,99957.13
2022-10-16T14:01:28.541Z,99944.78
2022-10-16T14:04:28.198Z,99942.97
2022-10-16T14:07:19.143Z,99941.25
2022-10-16T14:10:11.788Z,99943.94
2022-10-16T14:12:58.757Z,99954.56
2022-10-16T14:15:45.901Z,99929.22
2022-10-16T14:18:41.952Z,99958.22
2022-10-16T14:21:35.024Z,99937.75
2022-10-16T14:24:43.209Z,99908.66
2022-10-16T14:27:54.512Z,99954.69
2022-10-16T14:30:43.381Z,99953.84
2022-10-16T14:33:43.912Z,99959.19
2022-10-16T14:36:30.759Z,99968.13
2022-10-16T14:39:25.080Z,99965.44
2022-10-16T14:42:13.273Z,99963.66
2022-10-16T14:45:01.077Z,99973.44
2022-10-16T14:47:48.092Z,99977.94
2022-10-16T14:50:34.917Z,99970.06
2022-10-16T14:53:21.866Z,99971.09
2022-10-16T14:56:09.103Z,99909.25
2022-10-16T14:58:56.269Z,99981.13
2022-10-16T15:01:43.275Z,99982.28
2022-10-16T15:04:33.539Z,99982.50
2022-10-16T15:07:20.828Z,99993.16
2022-10-16T15:10:10.413Z,99984.72
2022-10-16T15:12:57.664Z,100000.38
2022-10-16T15:15:52.224Z,100013.16
2022-10-16T15:18:39.187Z,100012.72
2022-10-16T15:21:26.832Z,100026.31
2022-10-16T15:24:16.595Z,100020.44
2022-10-16T15:27:09.119Z,100020.09
2022-10-16T15:29:56.087Z,100004.63
2022-10-16T15:32:43.055Z,100013.78
2022-10-16T15:35:30.603Z,100011.44
2022-10-16T15:38:18.319Z,100034.50
2022-10-16T15:41:06.659Z,100027.69
2022-10-16T15:43:53.723Z,100022.88
2022-10-16T15:46:42.702Z,100026.31
2022-10-16T15:49:31.076Z,99908.75
2022-10-16T15:52:18.099Z,100031.38
2022-10-16T15:55:05.291Z,100035.06
2022-10-16T15:57:52.215Z,100036.31
2022-10-16T16:00:44.012Z,100043.72
2022-10-16T16:03:31.124Z,100010.66
2022-10-16T16:06:19.564Z,100034.19
2022-10-16T16:09:06.545Z,100044.34
2022-10-16T16:11:53.429Z,100048.06
2022-10-16T16:14:40.756Z,100018.19
2022-10-16T16:17:27.829Z,100057.38
2022-10-16T16:20:14.625Z,100056.91
2022-10-16T16:23:01.621Z,100068.41
2022-10-16T16:25:48.489Z,100012.22
2022-10-16T16:28:35.566Z,100063.38
2022-10-16T16:31:03.146Z,100061.84
2022-10-16T16:33:50.558Z,100058.69
2022-10-16T16:36:37.382Z,100067.72
2022-10-16T16:39:24.404Z,99975.75
2022-10-16T16:42:11.645Z,99976.72
2022-10-16T16:44:58.938Z,99955.06
2022-10-16T16:47:45.773Z,100076.25
2022-10-16T16:50:32.772Z,100034.31
2022-10-16T16:53:19.607Z,100052.53
2022-10-16T16:56:06.647Z,100089.47
2022-10-16T16:58:54.101Z,100004.88
2022-10-16T17:01:42.661Z,100086.22
2022-10-16T17:04:29.848Z,100077.78
2022-10-16T17:07:19.510Z,99929.69
2022-10-16T17:10:07.582Z,100099.19
2022-10-16T17:15:46.489Z,100081.94
2022-10-16T17:18:33.664Z,100089.41
2022-10-16T17:21:25.560Z,100081.81
2022-10-16T17:24:13.018Z,100091.59
2022-10-16T17:27:00.403Z,100095.53
2022-10-16T17:29:27.488Z,100068.53
2022-10-16T17:31:56.696Z,100088.28
2022-10-16T17:34:43.576Z,100000.34
2022-10-16T17:37:30.882Z,100069.53
2022-10-16T17:40:17.991Z,100087.75
2022-10-16T17:43:05.156Z,100022.06
2022-10-16T17:45:52.747Z,100003.94
2022-10-16T17:48:39.691Z,100087.75
2022-10-16T17:51:28.117Z,100078.00
2022-10-16T17:54:18.797Z,100085.47
2022-10-16T17:57:05.781Z,100084.28
2022-10-16T17:59:52.691Z,100082.53
2022-10-16T18:02:39.597Z,100072.97
2022-10-16T18:05:26.599Z,100076.84
2022-10-16T18:08:13.597Z,100057.53
2022-10-16T18:11:08.150Z,100070.53
2022-10-16T18:13:55.266Z,100065.84
2022-10-16T18:16:43.033Z,100076.88
2022-10-16T18:19:32.021Z,100068.69
2022-10-16T18:22:19.310Z,100084.34
2022-10-16T18:25:06.305Z,99953.56
2022-10-16T18:27:54.305Z,100076.53
2022-10-16T18:30:41.289Z,100011.06
2022-10-16T18:33:28.320Z,100088.94
2022-10-16T18:36:15.294Z,100084.69
2022-10-16T18:39:02.359Z,100065.94
2022-10-16T18:41:49.884Z,100080.41
2022-10-16T18:44:36.928Z,100091.59
2022-10-16T18:47:23.975Z,100014.75
2022-10-16T18:50:11.915Z,100105.72
2022-10-16T18:52:59.025Z,100085.72
2022-10-16T18:55:45.988Z,100084.59
2022-10-16T18:58:33.003Z,100098.03
2022-10-16T19:01:24.650Z,100099.91
2022-10-16T19:04:24.344Z,100092.81
2022-10-16T19:07:13.447Z,100091.88
2022-10-16T19:10:00.584Z,100098.22
2022-10-16T19:12:47.755Z,99963.88
2022-10-16T19:15:34.865Z,100085.91
2022-10-16T19:18:26.025Z,100082.81
2022-10-16T19:21:14.552Z,100070.47
2022-10-16T19:24:02.607Z,100077.06
2022-10-16T19:26:51.653Z,100093.59
2022-10-16T19:29:39.521Z,100076.38
2022-10-16T19:32:26.705Z,100101.47
2022-10-16T19:35:13.859Z,100099.66
2022-10-16T19:38:00.861Z,100084.78
2022-10-16T19:40:48.403Z,100084.59
2022-10-16T19:43:35.261Z,100083.25
2022-10-16T19:46:32.564Z,100098.22
2022-10-16T19:49:22.683Z,100101.03
2022-10-16T19:52:10.589Z,100083.34
2022-10-16T19:54:57.381Z,100104.78
2022-10-16T19:57:45.398Z,100104.72
2022-10-16T20:00:33.013Z,100089.31
2022-10-16T20:03:19.876Z,100095.38
2022-10-16T20:06:17.407Z,100104.38
2022-10-16T20:09:06.089Z,100094.69
2022-10-16T20:11:55.716Z,100089.38
2022-10-16T20:14:42.570Z,100082.22
2022-10-16T20:17:29.991Z,100083.00
2022-10-16T20:20:17.010Z,100087.34
2022-10-16T20:23:03.945Z,100083.81
2022-10-16T20:25:59.171Z,100079.38
2022-10-16T20:28:47.767Z,100080.34
2022-10-16T20:31:40.696Z,100082.81
2022-10-16T20:34:32.654Z,100072.28
2022-10-16T20:37:19.727Z,99991.34
2022-10-16T20:40:08.078Z,100080.16
2022-10-16T20:42:55.221Z,100076.66
2022-10-16T20:45:42.213Z,100098.72
2022-10-16T20:48:29.625Z,100075.88
2022-10-16T20:51:16.592Z,100093.59
2022-10-16T20:54:05.118Z,100057.78
2022-10-16T20:56:54.829Z,100025.34
2022-10-16T20:59:41.711Z,100097.16
2022-10-16T21:02:30.288Z,100113.09
2022-10-16T21:05:17.270Z,100120.28
2022-10-16T21:08:04.356Z,100112.69
2022-10-16T21:10:51.247Z,100125.59
2022-10-16T21:13:38.288Z,100121.22
2022-10-16T21:16:25.621Z,100117.72
2022-10-16T21:19:13.188Z,100115.69
2022-10-16T21:22:00.109Z,100135.41
2022-10-16T21:24:47.049Z,100129.25
2022-10-16T21:27:33.839Z,100111.53
2022-10-16T21:30:20.913Z,100004.56
2022-10-16T21:33:07.933Z,100006.28
2022-10-16T21:35:54.875Z,100129.34
2022-10-16T21:38:42.804Z,100126.84
2022-10-16T21:41:41.732Z,100005.41
2022-10-16T21:44:29.058Z,100109.75
2022-10-16T21:47:16.094Z,100121.72
2022-10-16T21:50:02.986Z,100115.84
2022-10-16T21:52:49.904Z,100125.50
2022-10-16T21:55:36.928Z,100057.22
2022-10-16T21:58:23.879Z,100132.66
2022-10-16T22:01:10.773Z,100118.31
2022-10-16T22:03:57.793Z,100123.69
2022-10-16T22:06:46.577Z,100128.47
2022-10-16T22:09:34.277Z,100138.47
2022-10-16T22:12:21.154Z,100070.25
2022-10-16T22:15:08.048Z,100025.78
2022-10-16T22:17:54.995Z,100143.25
2022-10-16T22:20:42.029Z,100155.41
